San Gabriel, CA (91775)

9:47 PM PST on January 26, 2015 (GMT -0800)
San Marino | Change Station
CLOSE
Current Station
Personal Weather Station
Location: San Marino, CA
Elevation: 574 ft
Nearby Weather Stations

Elev 574 ft 34.12 °N, 118.11 °W | Updated 4 seconds ago

Mostly Cloudy
Mostly Cloudy
55.2 °F
Feels Like 55.2 °F
N
0.0
Wind Variable Wind from NW
Gusts 0.0 mph

Today
High -- | Low -- °F
--% Chance of Precip.
Yesterday
High -- | Low -- °F
Precip. -- in
6:53 AM 5:16 PM
Waxing Crescent, 50% visible
Pressure 30.09 in
Visibility 10.0 miles
Clouds Mostly Cloudy 6000 ft
Overcast 8000 ft
Dew Point 53 °F
Humidity 93%
Rainfall 0.07 in
Snow Depth Not available.
UV 0 out of 12
Pollen 7.60 out of 12
Air Quality Not available.
Flu Activity Not available.
METAR KCQT 270447Z AUTO 00000KT 10SM BKN060 OVC080 14/11 A3009 RMK AO2 RAE29 SLP188 P0002 T01440111 $

More Conditions Fewer Conditions

Pressure 30.09 in
Visibility 10.0 miles
Clouds Mostly Cloudy 6000 ft
Overcast 8000 ft
Dew Point 53 °F
Humidity 93%
Rainfall 0.07 in
Snow Depth Not available.
UV 0 out of 12
Pollen 7.60 out of 12
Air Quality Not available.
Flu Activity Not available.
METAR KCQT 270447Z AUTO 00000KT 10SM BKN060 OVC080 14/11 A3009 RMK AO2 RAE29 SLP188 P0002 T01440111 $

More Conditions Fewer Conditions

10-Day Weather Forecast

Almanac

Astronomy

Jan. 26, 2015 Rise Set
Actual Time
Civil Twilight
Nautical Twilight
Astronomical Twilight
Moon
Length of Visible Light
Length of Day
Tomorrow will be .
, % of the Moon is Illuminated

Today's Extremes

State Highs State Lows

Community

WunderPhotos

Upload Photos

1,790,536 photos uploaded!

WunderBlogs® & News

Nearby

Air Quality

  Air Quality AQ Index Pollutant
Not available.

Snow Depth

Station Depth Elevation

Earthquake Activity

City Distance Mag. Time & Date
Minimum magnitude displayed is 2.5.

Coastal Water Temperatures

Place Temperature

Nearby Weather Stations